sensor_id;sensor_type;location;lat;lon;timestamp;P1;durP1;ratioP1;P2;durP2;ratioP2
58758;SDS011;46777;47.482;19.054;2023-02-01T00:00:52;7.55;;;5.60;;
58758;SDS011;46777;47.482;19.054;2023-02-01T00:03:36;7.95;;;5.40;;
58758;SDS011;46777;47.482;19.054;2023-02-01T00:06:21;8.55;;;5.90;;
58758;SDS011;46777;47.482;19.054;2023-02-01T00:09:05;8.80;;;5.78;;
58758;SDS011;46777;47.482;19.054;2023-02-01T00:11:51;7.60;;;5.78;;
58758;SDS011;46777;47.482;19.054;2023-02-01T00:14:35;10.73;;;5.75;;
58758;SDS011;46777;47.482;19.054;2023-02-01T00:17:22;7.80;;;5.90;;
58758;SDS011;46777;47.482;19.054;2023-02-01T00:20:07;7.40;;;5.80;;
58758;SDS011;46777;47.482;19.054;2023-02-01T00:22:52;8.75;;;6.35;;
58758;SDS011;46777;47.482;19.054;2023-02-01T00:25:36;8.82;;;6.15;;
58758;SDS011;46777;47.482;19.054;2023-02-01T00:28:20;8.68;;;5.63;;
58758;SDS011;46777;47.482;19.054;2023-02-01T00:31:04;7.00;;;5.20;;
58758;SDS011;46777;47.482;19.054;2023-02-01T00:33:49;8.43;;;7.40;;
58758;SDS011;46777;47.482;19.054;2023-02-01T00:36:33;11.05;;;6.47;;
58758;SDS011;46777;47.482;19.054;2023-02-01T00:39:17;8.43;;;6.03;;
58758;SDS011;46777;47.482;19.054;2023-02-01T00:42:01;9.68;;;6.30;;
58758;SDS011;46777;47.482;19.054;2023-02-01T00:44:46;9.13;;;6.25;;
58758;SDS011;46777;47.482;19.054;2023-02-01T00:47:30;9.23;;;6.57;;
58758;SDS011;46777;47.482;19.054;2023-02-01T00:50:15;7.82;;;5.75;;
58758;SDS011;46777;47.482;19.054;2023-02-01T00:53:00;8.18;;;5.90;;
58758;SDS011;46777;47.482;19.054;2023-02-01T00:55:45;7.75;;;5.93;;
58758;SDS011;46777;47.482;19.054;2023-02-01T00:58:30;8.30;;;5.78;;
58758;SDS011;46777;47.482;19.054;2023-02-01T01:01:16;8.25;;;5.60;;
58758;SDS011;46777;47.482;19.054;2023-02-01T01:04:01;7.70;;;5.88;;
58758;SDS011;46777;47.482;19.054;2023-02-01T01:06:45;9.07;;;6.05;;
58758;SDS011;46777;47.482;19.054;2023-02-01T01:09:29;7.65;;;6.05;;
58758;SDS011;46777;47.482;19.054;2023-02-01T01:12:14;8.77;;;5.93;;
58758;SDS011;46777;47.482;19.054;2023-02-01T01:14:58;7.38;;;6.00;;
58758;SDS011;46777;47.482;19.054;2023-02-01T01:17:42;6.68;;;5.50;;
58758;SDS011;46777;47.482;19.054;2023-02-01T01:20:27;9.10;;;6.30;;
58758;SDS011;46777;47.482;19.054;2023-02-01T01:23:11;9.38;;;6.00;;
58758;SDS011;46777;47.482;19.054;2023-02-01T01:25:55;8.45;;;6.30;;
58758;SDS011;46777;47.482;19.054;2023-02-01T01:28:40;8.77;;;6.55;;
58758;SDS011;46777;47.482;19.054;2023-02-01T01:31:24;8.88;;;6.50;;
58758;SDS011;46777;47.482;19.054;2023-02-01T01:34:09;7.78;;;6.97;;
58758;SDS011;46777;47.482;19.054;2023-02-01T01:36:53;8.15;;;6.25;;
58758;SDS011;46777;47.482;19.054;2023-02-01T01:39:37;7.25;;;6.03;;
58758;SDS011;46777;47.482;19.054;2023-02-01T01:42:22;7.32;;;6.00;;
58758;SDS011;46777;47.482;19.054;2023-02-01T01:45:07;6.75;;;6.07;;
58758;SDS011;46777;47.482;19.054;2023-02-01T01:48:02;7.55;;;5.97;;
58758;SDS011;46777;47.482;19.054;2023-02-01T01:50:55;8.20;;;6.10;;
58758;SDS011;46777;47.482;19.054;2023-02-01T01:53:44;8.38;;;6.03;;
58758;SDS011;46777;47.482;19.054;2023-02-01T01:56:29;7.43;;;5.88;;
58758;SDS011;46777;47.482;19.054;2023-02-01T01:59:14;7.07;;;6.00;;
58758;SDS011;46777;47.482;19.054;2023-02-01T02:01:58;8.15;;;6.22;;
58758;SDS011;46777;47.482;19.054;2023-02-01T02:04:43;6.68;;;5.90;;
58758;SDS011;46777;47.482;19.054;2023-02-01T02:07:32;6.25;;;5.65;;
58758;SDS011;46777;47.482;19.054;2023-02-01T02:10:18;6.85;;;6.07;;
58758;SDS011;46777;47.482;19.054;2023-02-01T02:13:02;6.57;;;5.88;;
58758;SDS011;46777;47.482;19.054;2023-02-01T02:15:55;6.85;;;6.18;;
58758;SDS011;46777;47.482;19.054;2023-02-01T02:50:44;7.40;;;6.70;;
58758;SDS011;46777;47.482;19.054;2023-02-01T02:53:56;7.63;;;6.80;;
58758;SDS011;46777;47.482;19.054;2023-02-01T02:57:00;6.90;;;6.20;;
58758;SDS011;46777;47.482;19.054;2023-02-01T03:00:06;6.60;;;5.90;;
58758;SDS011;46777;47.482;19.054;2023-02-01T03:03:11;7.20;;;6.50;;
58758;SDS011;46777;47.482;19.054;2023-02-01T03:06:14;6.30;;;5.75;;
58758;SDS011;46777;47.482;19.054;2023-02-01T03:09:01;6.00;;;5.50;;
58758;SDS011;46777;47.482;19.054;2023-02-01T03:11:47;5.82;;;5.32;;
58758;SDS011;46777;47.482;19.054;2023-02-01T03:14:53;6.15;;;5.60;;
58758;SDS011;46777;47.482;19.054;2023-02-01T03:17:39;6.10;;;5.57;;
58758;SDS011;46777;47.482;19.054;2023-02-01T03:20:24;6.03;;;5.43;;
58758;SDS011;46777;47.482;19.054;2023-02-01T03:23:10;5.70;;;5.20;;
58758;SDS011;46777;47.482;19.054;2023-02-01T03:25:55;5.97;;;5.47;;
58758;SDS011;46777;47.482;19.054;2023-02-01T03:28:43;5.95;;;5.50;;
58758;SDS011;46777;47.482;19.054;2023-02-01T03:31:29;6.75;;;5.43;;
58758;SDS011;46777;47.482;19.054;2023-02-01T03:34:13;6.10;;;5.60;;
58758;SDS011;46777;47.482;19.054;2023-02-01T03:36:58;5.80;;;5.30;;
58758;SDS011;46777;47.482;19.054;2023-02-01T03:39:58;6.53;;;6.03;;
58758;SDS011;46777;47.482;19.054;2023-02-01T03:42:45;5.40;;;4.90;;
58758;SDS011;46777;47.482;19.054;2023-02-01T03:45:33;5.22;;;4.80;;
58758;SDS011;46777;47.482;19.054;2023-02-01T03:48:18;5.90;;;5.40;;
58758;SDS011;46777;47.482;19.054;2023-02-01T03:51:04;5.70;;;5.20;;
58758;SDS011;46777;47.482;19.054;2023-02-01T03:53:50;5.00;;;4.60;;
58758;SDS011;46777;47.482;19.054;2023-02-01T03:56:36;5.22;;;4.75;;
58758;SDS011;46777;47.482;19.054;2023-02-01T03:59:22;5.47;;;5.00;;
58758;SDS011;46777;47.482;19.054;2023-02-01T04:02:06;5.10;;;4.70;;
58758;SDS011;46777;47.482;19.054;2023-02-01T04:04:50;5.50;;;5.00;;
58758;SDS011;46777;47.482;19.054;2023-02-01T04:07:35;5.90;;;5.40;;
58758;SDS011;46777;47.482;19.054;2023-02-01T04:10:19;5.75;;;5.20;;
58758;SDS011;46777;47.482;19.054;2023-02-01T04:13:03;5.63;;;5.13;;
58758;SDS011;46777;47.482;19.054;2023-02-01T04:15:48;5.47;;;4.97;;
58758;SDS011;46777;47.482;19.054;2023-02-01T04:18:33;5.68;;;5.18;;
58758;SDS011;46777;47.482;19.054;2023-02-01T04:21:19;5.68;;;5.20;;
58758;SDS011;46777;47.482;19.054;2023-02-01T04:24:03;5.88;;;5.38;;
58758;SDS011;46777;47.482;19.054;2023-02-01T04:26:47;6.22;;;5.72;;
58758;SDS011;46777;47.482;19.054;2023-02-01T04:29:32;6.28;;;5.70;;
58758;SDS011;46777;47.482;19.054;2023-02-01T04:32:16;5.78;;;5.28;;
58758;SDS011;46777;47.482;19.054;2023-02-01T04:35:01;5.68;;;5.18;;
58758;SDS011;46777;47.482;19.054;2023-02-01T04:37:45;6.30;;;5.80;;
58758;SDS011;46777;47.482;19.054;2023-02-01T04:40:29;5.30;;;4.90;;
58758;SDS011;46777;47.482;19.054;2023-02-01T04:43:13;5.97;;;5.47;;
58758;SDS011;46777;47.482;19.054;2023-02-01T04:45:57;6.10;;;5.60;;
58758;SDS011;46777;47.482;19.054;2023-02-01T04:48:42;6.15;;;5.65;;
58758;SDS011;46777;47.482;19.054;2023-02-01T04:51:26;7.40;;;6.80;;
58758;SDS011;46777;47.482;19.054;2023-02-01T04:54:10;5.60;;;5.20;;
58758;SDS011;46777;47.482;19.054;2023-02-01T04:56:55;6.07;;;5.57;;
58758;SDS011;46777;47.482;19.054;2023-02-01T04:59:39;6.35;;;5.85;;
58758;SDS011;46777;47.482;19.054;2023-02-01T05:02:24;6.40;;;5.80;;
58758;SDS011;46777;47.482;19.054;2023-02-01T05:05:08;5.80;;;5.30;;
58758;SDS011;46777;47.482;19.054;2023-02-01T05:07:52;6.03;;;5.53;;
58758;SDS011;46777;47.482;19.054;2023-02-01T05:10:37;5.68;;;5.22;;
58758;SDS011;46777;47.482;19.054;2023-02-01T05:13:21;3.70;;;3.50;;
58758;SDS011;46777;47.482;19.054;2023-02-01T05:16:24;5.80;;;5.30;;
58758;SDS011;46777;47.482;19.054;2023-02-01T05:19:08;5.35;;;4.90;;
58758;SDS011;46777;47.482;19.054;2023-02-01T05:21:53;6.55;;;5.28;;
58758;SDS011;46777;47.482;19.054;2023-02-01T05:24:37;6.00;;;5.50;;
58758;SDS011;46777;47.482;19.054;2023-02-01T05:27:21;5.93;;;5.43;;
58758;SDS011;46777;47.482;19.054;2023-02-01T05:30:05;5.63;;;5.13;;
58758;SDS011;46777;47.482;19.054;2023-02-01T05:32:51;6.07;;;5.50;;
58758;SDS011;46777;47.482;19.054;2023-02-01T05:35:35;6.00;;;5.50;;
58758;SDS011;46777;47.482;19.054;2023-02-01T05:38:20;6.95;;;6.35;;
58758;SDS011;46777;47.482;19.054;2023-02-01T05:41:04;6.47;;;5.88;;
58758;SDS011;46777;47.482;19.054;2023-02-01T05:43:48;5.82;;;5.32;;
58758;SDS011;46777;47.482;19.054;2023-02-01T05:46:33;5.82;;;5.40;;
58758;SDS011;46777;47.482;19.054;2023-02-01T05:49:18;5.78;;;5.30;;
58758;SDS011;46777;47.482;19.054;2023-02-01T05:52:02;5.70;;;5.20;;
58758;SDS011;46777;47.482;19.054;2023-02-01T05:54:46;6.18;;;5.68;;
58758;SDS011;46777;47.482;19.054;2023-02-01T05:57:31;6.40;;;5.80;;
58758;SDS011;46777;47.482;19.054;2023-02-01T06:00:15;6.35;;;5.85;;
58758;SDS011;46777;47.482;19.054;2023-02-01T06:03:00;6.43;;;5.82;;
58758;SDS011;46777;47.482;19.054;2023-02-01T06:05:45;6.82;;;6.32;;
58758;SDS011;46777;47.482;19.054;2023-02-01T06:08:30;6.22;;;5.72;;
58758;SDS011;46777;47.482;19.054;2023-02-01T06:11:14;6.40;;;5.90;;
58758;SDS011;46777;47.482;19.054;2023-02-01T06:13:59;6.75;;;6.25;;
58758;SDS011;46777;47.482;19.054;2023-02-01T06:16:43;6.57;;;6.07;;
58758;SDS011;46777;47.482;19.054;2023-02-01T06:19:30;6.38;;;5.82;;
58758;SDS011;46777;47.482;19.054;2023-02-01T06:22:15;6.82;;;6.22;;
58758;SDS011;46777;47.482;19.054;2023-02-01T06:24:59;6.45;;;5.95;;
58758;SDS011;46777;47.482;19.054;2023-02-01T06:27:43;6.18;;;5.68;;
58758;SDS011;46777;47.482;19.054;2023-02-01T06:30:31;6.43;;;5.93;;
58758;SDS011;46777;47.482;19.054;2023-02-01T06:33:15;6.50;;;5.90;;
58758;SDS011;46777;47.482;19.054;2023-02-01T06:36:00;6.85;;;6.30;;
58758;SDS011;46777;47.482;19.054;2023-02-01T06:38:46;7.10;;;6.50;;
58758;SDS011;46777;47.482;19.054;2023-02-01T06:41:30;6.50;;;6.00;;
58758;SDS011;46777;47.482;19.054;2023-02-01T06:44:14;6.90;;;6.20;;
58758;SDS011;46777;47.482;19.054;2023-02-01T06:46:59;6.95;;;6.35;;
58758;SDS011;46777;47.482;19.054;2023-02-01T06:49:43;7.20;;;6.38;;
58758;SDS011;46777;47.482;19.054;2023-02-01T06:52:27;6.53;;;5.80;;
58758;SDS011;46777;47.482;19.054;2023-02-01T06:55:12;6.38;;;5.75;;
58758;SDS011;46777;47.482;19.054;2023-02-01T06:57:57;6.32;;;5.72;;
58758;SDS011;46777;47.482;19.054;2023-02-01T07:00:42;6.40;;;5.80;;
58758;SDS011;46777;47.482;19.054;2023-02-01T07:03:26;6.82;;;6.22;;
58758;SDS011;46777;47.482;19.054;2023-02-01T07:06:10;7.10;;;6.50;;
58758;SDS011;46777;47.482;19.054;2023-02-01T07:08:54;6.50;;;6.00;;
58758;SDS011;46777;47.482;19.054;2023-02-01T07:11:39;6.78;;;6.22;;
58758;SDS011;46777;47.482;19.054;2023-02-01T07:14:28;6.78;;;6.07;;
58758;SDS011;46777;47.482;19.054;2023-02-01T07:17:12;6.40;;;5.72;;
58758;SDS011;46777;47.482;19.054;2023-02-01T07:19:56;7.10;;;6.30;;
58758;SDS011;46777;47.482;19.054;2023-02-01T07:22:42;6.20;;;5.70;;
58758;SDS011;46777;47.482;19.054;2023-02-01T07:25:27;6.80;;;6.20;;
58758;SDS011;46777;47.482;19.054;2023-02-01T07:28:11;6.25;;;5.70;;
58758;SDS011;46777;47.482;19.054;2023-02-01T07:30:56;6.60;;;5.95;;
58758;SDS011;46777;47.482;19.054;2023-02-01T07:33:45;6.60;;;6.00;;
58758;SDS011;46777;47.482;19.054;2023-02-01T07:36:29;6.53;;;6.03;;
58758;SDS011;46777;47.482;19.054;2023-02-01T07:39:14;7.03;;;6.35;;
58758;SDS011;46777;47.482;19.054;2023-02-01T07:41:58;7.57;;;6.20;;
58758;SDS011;46777;47.482;19.054;2023-02-01T07:44:42;6.28;;;5.70;;
58758;SDS011;46777;47.482;19.054;2023-02-01T07:47:26;6.90;;;6.13;;
58758;SDS011;46777;47.482;19.054;2023-02-01T07:50:10;6.40;;;5.90;;
58758;SDS011;46777;47.482;19.054;2023-02-01T07:52:55;6.30;;;5.70;;
58758;SDS011;46777;47.482;19.054;2023-02-01T07:55:39;7.90;;;6.43;;
58758;SDS011;46777;47.482;19.054;2023-02-01T07:58:24;6.50;;;5.90;;
58758;SDS011;46777;47.482;19.054;2023-02-01T08:01:16;6.97;;;6.30;;
58758;SDS011;46777;47.482;19.054;2023-02-01T08:04:03;6.63;;;5.95;;
58758;SDS011;46777;47.482;19.054;2023-02-01T08:06:48;6.57;;;5.97;;
58758;SDS011;46777;47.482;19.054;2023-02-01T08:09:32;6.18;;;5.68;;
58758;SDS011;46777;47.482;19.054;2023-02-01T08:12:16;6.50;;;6.00;;
58758;SDS011;46777;47.482;19.054;2023-02-01T08:15:01;6.30;;;5.80;;
58758;SDS011;46777;47.482;19.054;2023-02-01T08:17:46;7.90;;;5.97;;
58758;SDS011;46777;47.482;19.054;2023-02-01T08:20:30;6.47;;;5.65;;
58758;SDS011;46777;47.482;19.054;2023-02-01T08:23:14;6.50;;;5.90;;
58758;SDS011;46777;47.482;19.054;2023-02-01T08:26:09;6.90;;;5.97;;
58758;SDS011;46777;47.482;19.054;2023-02-01T08:28:55;6.47;;;5.88;;
58758;SDS011;46777;47.482;19.054;2023-02-01T08:31:39;6.45;;;5.40;;
58758;SDS011;46777;47.482;19.054;2023-02-01T08:34:27;6.20;;;5.60;;
58758;SDS011;46777;47.482;19.054;2023-02-01T08:37:11;7.22;;;6.07;;
58758;SDS011;46777;47.482;19.054;2023-02-01T08:39:56;7.53;;;5.72;;
58758;SDS011;46777;47.482;19.054;2023-02-01T08:42:40;6.55;;;5.90;;
58758;SDS011;46777;47.482;19.054;2023-02-01T08:45:36;6.85;;;6.20;;
58758;SDS011;46777;47.482;19.054;2023-02-01T08:48:21;7.13;;;6.43;;
58758;SDS011;46777;47.482;19.054;2023-02-01T08:51:09;6.90;;;6.25;;
58758;SDS011;46777;47.482;19.054;2023-02-01T08:53:54;6.78;;;6.07;;
58758;SDS011;46777;47.482;19.054;2023-02-01T08:56:38;7.00;;;6.40;;
58758;SDS011;46777;47.482;19.054;2023-02-01T08:59:22;7.35;;;6.65;;
58758;SDS011;46777;47.482;19.054;2023-02-01T09:02:08;6.93;;;6.22;;
58758;SDS011;46777;47.482;19.054;2023-02-01T09:04:55;7.63;;;6.93;;
58758;SDS011;46777;47.482;19.054;2023-02-01T09:07:40;7.40;;;6.70;;
58758;SDS011;46777;47.482;19.054;2023-02-01T09:10:24;8.00;;;7.20;;
58758;SDS011;46777;47.482;19.054;2023-02-01T09:13:08;7.45;;;6.65;;
58758;SDS011;46777;47.482;19.054;2023-02-01T09:15:53;7.22;;;6.50;;
58758;SDS011;46777;47.482;19.054;2023-02-01T09:18:37;7.15;;;6.55;;
58758;SDS011;46777;47.482;19.054;2023-02-01T09:21:21;9.43;;;6.60;;
58758;SDS011;46777;47.482;19.054;2023-02-01T09:24:05;7.60;;;6.90;;
58758;SDS011;46777;47.482;19.054;2023-02-01T09:26:50;7.30;;;6.70;;
58758;SDS011;46777;47.482;19.054;2023-02-01T09:29:35;7.15;;;6.45;;
58758;SDS011;46777;47.482;19.054;2023-02-01T09:32:20;7.40;;;6.60;;
58758;SDS011;46777;47.482;19.054;2023-02-01T09:35:05;6.47;;;5.90;;
58758;SDS011;46777;47.482;19.054;2023-02-01T09:37:50;6.97;;;6.28;;
58758;SDS011;46777;47.482;19.054;2023-02-01T09:40:36;7.88;;;7.07;;
58758;SDS011;46777;47.482;19.054;2023-02-01T09:43:38;7.68;;;6.88;;
58758;SDS011;46777;47.482;19.054;2023-02-01T09:46:29;7.68;;;6.97;;
58758;SDS011;46777;47.482;19.054;2023-02-01T09:49:18;6.90;;;6.30;;
58758;SDS011;46777;47.482;19.054;2023-02-01T09:52:04;6.77;;;6.17;;
58758;SDS011;46777;47.482;19.054;2023-02-01T09:54:52;6.68;;;6.07;;
58758;SDS011;46777;47.482;19.054;2023-02-01T09:57:58;7.13;;;6.00;;
58758;SDS011;46777;47.482;19.054;2023-02-01T10:00:52;7.30;;;6.60;;
58758;SDS011;46777;47.482;19.054;2023-02-01T10:03:37;6.95;;;6.35;;
58758;SDS011;46777;47.482;19.054;2023-02-01T10:09:25;9.30;;;7.53;;
58758;SDS011;46777;47.482;19.054;2023-02-01T10:23:52;6.70;;;6.10;;
58758;SDS011;46777;47.482;19.054;2023-02-01T10:27:01;7.80;;;7.00;;
58758;SDS011;46777;47.482;19.054;2023-02-01T10:30:12;7.80;;;7.10;;
58758;SDS011;46777;47.482;19.054;2023-02-01T10:33:02;7.88;;;7.13;;
58758;SDS011;46777;47.482;19.054;2023-02-01T10:36:01;8.63;;;7.50;;
58758;SDS011;46777;47.482;19.054;2023-02-01T10:38:47;8.15;;;7.35;;
58758;SDS011;46777;47.482;19.054;2023-02-01T10:41:33;8.27;;;7.57;;
58758;SDS011;46777;47.482;19.054;2023-02-01T10:44:19;8.45;;;7.65;;
58758;SDS011;46777;47.482;19.054;2023-02-01T10:47:05;8.73;;;7.95;;
58758;SDS011;46777;47.482;19.054;2023-02-01T10:52:41;9.40;;;8.02;;
58758;SDS011;46777;47.482;19.054;2023-02-01T10:55:28;8.60;;;7.80;;
58758;SDS011;46777;47.482;19.054;2023-02-01T10:58:17;8.32;;;7.63;;
58758;SDS011;46777;47.482;19.054;2023-02-01T11:01:09;8.45;;;7.20;;
58758;SDS011;46777;47.482;19.054;2023-02-01T11:06:45;7.95;;;7.15;;
58758;SDS011;46777;47.482;19.054;2023-02-01T11:12:31;8.38;;;7.65;;
58758;SDS011;46777;47.482;19.054;2023-02-01T11:15:22;8.52;;;7.72;;
58758;SDS011;46777;47.482;19.054;2023-02-01T11:20:51;8.68;;;7.03;;
58758;SDS011;46777;47.482;19.054;2023-02-01T11:23:40;7.60;;;6.90;;
58758;SDS011;46777;47.482;19.054;2023-02-01T11:26:25;8.13;;;7.43;;
58758;SDS011;46777;47.482;19.054;2023-02-01T11:29:10;9.15;;;8.18;;
58758;SDS011;46777;47.482;19.054;2023-02-01T11:31:56;8.18;;;7.40;;
58758;SDS011;46777;47.482;19.054;2023-02-01T11:34:42;8.50;;;7.70;;
58758;SDS011;46777;47.482;19.054;2023-02-01T11:37:29;8.20;;;7.50;;
58758;SDS011;46777;47.482;19.054;2023-02-01T11:45:58;8.65;;;7.93;;
58758;SDS011;46777;47.482;19.054;2023-02-01T11:48:43;8.50;;;7.75;;
58758;SDS011;46777;47.482;19.054;2023-02-01T11:51:34;8.50;;;7.70;;
58758;SDS011;46777;47.482;19.054;2023-02-01T11:54:44;8.73;;;7.82;;
58758;SDS011;46777;47.482;19.054;2023-02-01T12:00:22;9.70;;;8.80;;
58758;SDS011;46777;47.482;19.054;2023-02-01T12:03:25;9.20;;;8.30;;
58758;SDS011;46777;47.482;19.054;2023-02-01T12:06:31;9.52;;;8.63;;
58758;SDS011;46777;47.482;19.054;2023-02-01T12:09:27;10.52;;;9.43;;
58758;SDS011;46777;47.482;19.054;2023-02-01T12:12:19;9.77;;;8.57;;
58758;SDS011;46777;47.482;19.054;2023-02-01T12:18:27;10.35;;;8.30;;
58758;SDS011;46777;47.482;19.054;2023-02-01T12:21:29;9.02;;;8.23;;
58758;SDS011;46777;47.482;19.054;2023-02-01T12:24:20;9.63;;;8.73;;
58758;SDS011;46777;47.482;19.054;2023-02-01T12:33:13;8.90;;;8.00;;
58758;SDS011;46777;47.482;19.054;2023-02-01T12:38:53;11.50;;;9.30;;
58758;SDS011;46777;47.482;19.054;2023-02-01T12:41:58;9.70;;;8.70;;
58758;SDS011;46777;47.482;19.054;2023-02-01T12:47:38;8.80;;;7.90;;
58758;SDS011;46777;47.482;19.054;2023-02-01T12:50:28;8.02;;;7.22;;
58758;SDS011;46777;47.482;19.054;2023-02-01T12:53:23;8.18;;;7.47;;
58758;SDS011;46777;47.482;19.054;2023-02-01T12:56:09;9.80;;;7.43;;
58758;SDS011;46777;47.482;19.054;2023-02-01T12:58:56;10.05;;;8.90;;
58758;SDS011;46777;47.482;19.054;2023-02-01T13:01:46;10.27;;;9.27;;
58758;SDS011;46777;47.482;19.054;2023-02-01T13:04:37;10.15;;;8.05;;
58758;SDS011;46777;47.482;19.054;2023-02-01T13:07:23;8.38;;;6.97;;
58758;SDS011;46777;47.482;19.054;2023-02-01T13:10:15;7.70;;;6.90;;
58758;SDS011;46777;47.482;19.054;2023-02-01T13:13:09;7.35;;;6.60;;
58758;SDS011;46777;47.482;19.054;2023-02-01T13:15:57;7.70;;;7.00;;
58758;SDS011;46777;47.482;19.054;2023-02-01T13:18:43;7.88;;;7.07;;
58758;SDS011;46777;47.482;19.054;2023-02-01T13:21:29;8.00;;;7.10;;
58758;SDS011;46777;47.482;19.054;2023-02-01T13:24:27;8.38;;;7.40;;
58758;SDS011;46777;47.482;19.054;2023-02-01T13:27:14;7.53;;;6.82;;
58758;SDS011;46777;47.482;19.054;2023-02-01T13:30:04;8.65;;;7.00;;
58758;SDS011;46777;47.482;19.054;2023-02-01T13:35:56;7.95;;;7.25;;
58758;SDS011;46777;47.482;19.054;2023-02-01T13:44:39;7.95;;;7.25;;
58758;SDS011;46777;47.482;19.054;2023-02-01T13:47:43;8.75;;;7.90;;
58758;SDS011;46777;47.482;19.054;2023-02-01T13:50:30;8.57;;;7.78;;
58758;SDS011;46777;47.482;19.054;2023-02-01T13:53:18;9.95;;;8.02;;
58758;SDS011;46777;47.482;19.054;2023-02-01T13:58:52;8.32;;;7.50;;
58758;SDS011;46777;47.482;19.054;2023-02-01T14:01:36;8.98;;;8.18;;
58758;SDS011;46777;47.482;19.054;2023-02-01T14:04:45;9.13;;;8.10;;
58758;SDS011;46777;47.482;19.054;2023-02-01T14:07:30;7.95;;;7.20;;
58758;SDS011;46777;47.482;19.054;2023-02-01T14:16:19;8.15;;;7.35;;
58758;SDS011;46777;47.482;19.054;2023-02-01T14:19:06;8.70;;;7.90;;
58758;SDS011;46777;47.482;19.054;2023-02-01T14:21:54;8.20;;;7.40;;
58758;SDS011;46777;47.482;19.054;2023-02-01T14:24:42;7.40;;;6.70;;
58758;SDS011;46777;47.482;19.054;2023-02-01T14:27:35;7.88;;;7.07;;
58758;SDS011;46777;47.482;19.054;2023-02-01T14:30:19;7.50;;;6.90;;
58758;SDS011;46777;47.482;19.054;2023-02-01T14:33:20;7.47;;;6.78;;
58758;SDS011;46777;47.482;19.054;2023-02-01T14:36:09;8.25;;;6.93;;
58758;SDS011;46777;47.482;19.054;2023-02-01T14:38:55;7.30;;;6.60;;
58758;SDS011;46777;47.482;19.054;2023-02-01T14:41:43;7.20;;;6.50;;
58758;SDS011;46777;47.482;19.054;2023-02-01T14:44:31;7.25;;;6.55;;
58758;SDS011;46777;47.482;19.054;2023-02-01T14:55:59;8.60;;;6.47;;
58758;SDS011;46777;47.482;19.054;2023-02-01T15:01:36;6.38;;;5.85;;
58758;SDS011;46777;47.482;19.054;2023-02-01T15:04:24;8.10;;;6.30;;
58758;SDS011;46777;47.482;19.054;2023-02-01T15:07:10;7.18;;;5.85;;
58758;SDS011;46777;47.482;19.054;2023-02-01T15:09:56;7.65;;;5.80;;
58758;SDS011;46777;47.482;19.054;2023-02-01T15:12:42;6.57;;;5.97;;
58758;SDS011;46777;47.482;19.054;2023-02-01T15:15:28;6.35;;;5.78;;
58758;SDS011;46777;47.482;19.054;2023-02-01T15:18:17;5.47;;;4.97;;
58758;SDS011;46777;47.482;19.054;2023-02-01T15:21:03;5.70;;;5.20;;
58758;SDS011;46777;47.482;19.054;2023-02-01T15:23:48;6.28;;;5.43;;
58758;SDS011;46777;47.482;19.054;2023-02-01T15:26:33;6.00;;;5.43;;
58758;SDS011;46777;47.482;19.054;2023-02-01T15:29:17;5.80;;;5.30;;
58758;SDS011;46777;47.482;19.054;2023-02-01T15:32:02;5.85;;;5.35;;
58758;SDS011;46777;47.482;19.054;2023-02-01T15:34:47;6.22;;;5.30;;
58758;SDS011;46777;47.482;19.054;2023-02-01T15:37:32;5.65;;;5.07;;
58758;SDS011;46777;47.482;19.054;2023-02-01T15:40:20;5.82;;;5.32;;
58758;SDS011;46777;47.482;19.054;2023-02-01T15:43:11;5.80;;;5.07;;
58758;SDS011;46777;47.482;19.054;2023-02-01T15:45:59;6.00;;;5.50;;
58758;SDS011;46777;47.482;19.054;2023-02-01T15:48:45;6.00;;;5.43;;
58758;SDS011;46777;47.482;19.054;2023-02-01T15:51:31;5.80;;;5.20;;
58758;SDS011;46777;47.482;19.054;2023-02-01T15:54:22;6.05;;;5.45;;
58758;SDS011;46777;47.482;19.054;2023-02-01T15:57:07;5.80;;;5.30;;
58758;SDS011;46777;47.482;19.054;2023-02-01T15:59:51;5.78;;;5.05;;
58758;SDS011;46777;47.482;19.054;2023-02-01T16:02:43;5.35;;;4.95;;
58758;SDS011;46777;47.482;19.054;2023-02-01T16:05:35;6.38;;;5.10;;
58758;SDS011;46777;47.482;19.054;2023-02-01T16:08:22;7.07;;;5.78;;
58758;SDS011;46777;47.482;19.054;2023-02-01T16:13:51;5.65;;;5.15;;
58758;SDS011;46777;47.482;19.054;2023-02-01T16:16:35;5.50;;;5.00;;
58758;SDS011;46777;47.482;19.054;2023-02-01T16:19:20;5.13;;;4.63;;
58758;SDS011;46777;47.482;19.054;2023-02-01T16:22:05;5.30;;;4.80;;
58758;SDS011;46777;47.482;19.054;2023-02-01T16:24:49;6.00;;;4.50;;
58758;SDS011;46777;47.482;19.054;2023-02-01T16:27:33;5.22;;;4.75;;
58758;SDS011;46777;47.482;19.054;2023-02-01T16:30:18;4.95;;;4.55;;
58758;SDS011;46777;47.482;19.054;2023-02-01T16:33:10;6.70;;;4.97;;
58758;SDS011;46777;47.482;19.054;2023-02-01T16:35:55;4.82;;;4.47;;
58758;SDS011;46777;47.482;19.054;2023-02-01T16:38:44;5.45;;;4.95;;
58758;SDS011;46777;47.482;19.054;2023-02-01T16:41:30;6.53;;;4.97;;
58758;SDS011;46777;47.482;19.054;2023-02-01T16:44:14;5.10;;;4.60;;
58758;SDS011;46777;47.482;19.054;2023-02-01T16:46:59;5.72;;;5.22;;
58758;SDS011;46777;47.482;19.054;2023-02-01T16:49:43;6.38;;;5.13;;
58758;SDS011;46777;47.482;19.054;2023-02-01T16:52:28;5.70;;;5.20;;
58758;SDS011;46777;47.482;19.054;2023-02-01T16:55:13;7.28;;;5.28;;
58758;SDS011;46777;47.482;19.054;2023-02-01T16:57:58;6.10;;;5.60;;
58758;SDS011;46777;47.482;19.054;2023-02-01T17:00:43;6.20;;;5.60;;
58758;SDS011;46777;47.482;19.054;2023-02-01T17:03:28;6.25;;;5.05;;
58758;SDS011;46777;47.482;19.054;2023-02-01T17:06:13;5.93;;;5.38;;
58758;SDS011;46777;47.482;19.054;2023-02-01T17:08:59;6.78;;;5.10;;
58758;SDS011;46777;47.482;19.054;2023-02-01T17:11:44;7.93;;;5.45;;
58758;SDS011;46777;47.482;19.054;2023-02-01T17:14:29;6.63;;;5.97;;
58758;SDS011;46777;47.482;19.054;2023-02-01T17:17:13;6.22;;;5.63;;
58758;SDS011;46777;47.482;19.054;2023-02-01T17:19:58;6.25;;;5.65;;
58758;SDS011;46777;47.482;19.054;2023-02-01T17:22:43;7.03;;;5.72;;
58758;SDS011;46777;47.482;19.054;2023-02-01T17:25:27;7.03;;;5.85;;
58758;SDS011;46777;47.482;19.054;2023-02-01T17:28:13;7.30;;;6.55;;
58758;SDS011;46777;47.482;19.054;2023-02-01T17:30:57;7.22;;;6.13;;
58758;SDS011;46777;47.482;19.054;2023-02-01T17:33:41;7.72;;;6.82;;
58758;SDS011;46777;47.482;19.054;2023-02-01T17:36:26;7.40;;;6.50;;
58758;SDS011;46777;47.482;19.054;2023-02-01T17:39:10;6.68;;;6.07;;
58758;SDS011;46777;47.482;19.054;2023-02-01T17:42:15;7.85;;;5.78;;
58758;SDS011;46777;47.482;19.054;2023-02-01T17:45:01;6.50;;;5.90;;
58758;SDS011;46777;47.482;19.054;2023-02-01T17:47:45;6.95;;;6.25;;
58758;SDS011;46777;47.482;19.054;2023-02-01T17:50:31;7.10;;;6.05;;
58758;SDS011;46777;47.482;19.054;2023-02-01T17:53:16;6.47;;;5.88;;
58758;SDS011;46777;47.482;19.054;2023-02-01T17:56:03;6.50;;;5.90;;
58758;SDS011;46777;47.482;19.054;2023-02-01T17:58:47;7.80;;;5.93;;
58758;SDS011;46777;47.482;19.054;2023-02-01T18:01:32;6.85;;;6.20;;
58758;SDS011;46777;47.482;19.054;2023-02-01T18:04:17;8.32;;;5.57;;
58758;SDS011;46777;47.482;19.054;2023-02-01T18:07:02;6.30;;;5.70;;
58758;SDS011;46777;47.482;19.054;2023-02-01T18:09:46;6.85;;;5.15;;
58758;SDS011;46777;47.482;19.054;2023-02-01T18:12:30;5.80;;;5.30;;
58758;SDS011;46777;47.482;19.054;2023-02-01T18:15:17;6.10;;;5.20;;
58758;SDS011;46777;47.482;19.054;2023-02-01T18:18:02;5.85;;;5.05;;
58758;SDS011;46777;47.482;19.054;2023-02-01T18:20:46;5.40;;;5.00;;
58758;SDS011;46777;47.482;19.054;2023-02-01T18:23:30;6.30;;;5.40;;